Durango, Colorado
Current Conditions -  °F | °C
As of 10:53 PM on Tuesday 21 Oct 2014 (Local Time) from KDRO Reporting Station
Few Clouds Few Clouds  
Wind Chill: 41°   Ceiling: Unl
Heat Index: 45°   Visibility: 10mi
Dew Point: 42°   Wind: 7mph
Humidity: 90%   Direction: 350°N
Pressure: 30.14"   Gusts: NA
Location:  37.27°N, 107.87°W
Report Text: KDRO 220453Z AUTO 35006KT 10SM FEW070 07/06 A3014 RMK AO2 SLP171 T00720056 PWINO
Loading
Personal Weather Stations






























Interactive Weather Map New forecast layout! Learn more

10-Day Weather Forecast

Advertisements
Track Severe Weather on mobile